sensor_id;sensor_type;location;lat;lon;timestamp;temperature;humidity
55064;DHT22;40963;52.168;21.296;2023-02-11T00:01:38;2.30;99.90
55064;DHT22;40963;52.168;21.296;2023-02-11T00:04:06;2.30;99.90
55064;DHT22;40963;52.168;21.296;2023-02-11T00:06:33;2.30;99.90
55064;DHT22;40963;52.168;21.296;2023-02-11T00:08:59;2.30;99.90
55064;DHT22;40963;52.168;21.296;2023-02-11T00:11:26;2.30;99.90
55064;DHT22;40963;52.168;21.296;2023-02-11T00:13:55;2.30;99.90
55064;DHT22;40963;52.168;21.296;2023-02-11T00:16:21;2.30;99.90
55064;DHT22;40963;52.168;21.296;2023-02-11T00:18:47;2.30;99.90
55064;DHT22;40963;52.168;21.296;2023-02-11T00:21:17;2.30;99.90
55064;DHT22;40963;52.168;21.296;2023-02-11T00:23:44;2.30;99.90
55064;DHT22;40963;52.168;21.296;2023-02-11T00:26:15;2.30;99.90
55064;DHT22;40963;52.168;21.296;2023-02-11T00:28:41;2.30;99.90
55064;DHT22;40963;52.168;21.296;2023-02-11T00:31:07;2.30;99.90
55064;DHT22;40963;52.168;21.296;2023-02-11T00:33:33;2.30;99.90
55064;DHT22;40963;52.168;21.296;2023-02-11T00:36:03;2.30;99.90
55064;DHT22;40963;52.168;21.296;2023-02-11T00:38:29;2.30;99.90
55064;DHT22;40963;52.168;21.296;2023-02-11T00:40:55;2.30;99.90
55064;DHT22;40963;52.168;21.296;2023-02-11T00:43:21;2.30;99.90
55064;DHT22;40963;52.168;21.296;2023-02-11T00:45:46;2.30;99.90
55064;DHT22;40963;52.168;21.296;2023-02-11T00:48:12;2.20;99.90
55064;DHT22;40963;52.168;21.296;2023-02-11T00:50:38;2.20;99.90
55064;DHT22;40963;52.168;21.296;2023-02-11T00:53:03;2.20;99.90
55064;DHT22;40963;52.168;21.296;2023-02-11T00:55:29;2.20;99.90
55064;DHT22;40963;52.168;21.296;2023-02-11T00:57:55;2.20;99.90
55064;DHT22;40963;52.168;21.296;2023-02-11T01:00:21;2.20;99.90
55064;DHT22;40963;52.168;21.296;2023-02-11T01:02:46;2.20;99.90
55064;DHT22;40963;52.168;21.296;2023-02-11T01:05:12;2.20;99.90
55064;DHT22;40963;52.168;21.296;2023-02-11T01:07:38;2.20;99.90
55064;DHT22;40963;52.168;21.296;2023-02-11T01:10:03;2.20;99.90
55064;DHT22;40963;52.168;21.296;2023-02-11T01:12:29;2.30;99.90
55064;DHT22;40963;52.168;21.296;2023-02-11T01:14:55;2.30;99.90
55064;DHT22;40963;52.168;21.296;2023-02-11T01:17:20;2.30;99.90
55064;DHT22;40963;52.168;21.296;2023-02-11T01:19:46;2.30;99.90
55064;DHT22;40963;52.168;21.296;2023-02-11T01:22:12;2.30;99.90
55064;DHT22;40963;52.168;21.296;2023-02-11T01:24:37;2.30;99.90
55064;DHT22;40963;52.168;21.296;2023-02-11T01:27:03;2.30;99.90
55064;DHT22;40963;52.168;21.296;2023-02-11T01:29:29;2.30;99.90
55064;DHT22;40963;52.168;21.296;2023-02-11T01:31:54;2.30;99.90
55064;DHT22;40963;52.168;21.296;2023-02-11T01:34:20;2.30;99.90
55064;DHT22;40963;52.168;21.296;2023-02-11T01:36:46;2.30;99.90
55064;DHT22;40963;52.168;21.296;2023-02-11T01:39:11;2.30;99.90
55064;DHT22;40963;52.168;21.296;2023-02-11T01:41:37;2.30;99.90
55064;DHT22;40963;52.168;21.296;2023-02-11T01:44:23;2.30;99.90
55064;DHT22;40963;52.168;21.296;2023-02-11T01:46:49;2.30;99.90
55064;DHT22;40963;52.168;21.296;2023-02-11T01:49:17;2.30;99.90
55064;DHT22;40963;52.168;21.296;2023-02-11T01:54:29;2.30;99.90
55064;DHT22;40963;52.168;21.296;2023-02-11T01:57:17;2.30;99.90
55064;DHT22;40963;52.168;21.296;2023-02-11T02:08:44;2.30;99.90
55064;DHT22;40963;52.168;21.296;2023-02-11T02:11:11;2.30;99.90
55064;DHT22;40963;52.168;21.296;2023-02-11T02:13:37;2.30;99.90
55064;DHT22;40963;52.168;21.296;2023-02-11T02:16:05;2.30;99.90
55064;DHT22;40963;52.168;21.296;2023-02-11T02:18:47;2.30;99.90
55064;DHT22;40963;52.168;21.296;2023-02-11T02:27:47;2.30;99.90
55064;DHT22;40963;52.168;21.296;2023-02-11T02:36:14;2.30;99.90
55064;DHT22;40963;52.168;21.296;2023-02-11T02:38:57;2.30;99.90
55064;DHT22;40963;52.168;21.296;2023-02-11T02:41:29;2.30;99.90
55064;DHT22;40963;52.168;21.296;2023-02-11T02:43:56;2.30;99.90
55064;DHT22;40963;52.168;21.296;2023-02-11T02:46:25;2.30;99.90
55064;DHT22;40963;52.168;21.296;2023-02-11T02:48:52;2.30;99.90
55064;DHT22;40963;52.168;21.296;2023-02-11T03:02:56;2.30;99.90
55064;DHT22;40963;52.168;21.296;2023-02-11T03:11:18;2.30;99.90
55064;DHT22;40963;52.168;21.296;2023-02-11T03:13:45;2.30;99.90
55064;DHT22;40963;52.168;21.296;2023-02-11T03:16:18;2.40;99.90
55064;DHT22;40963;52.168;21.296;2023-02-11T03:19:33;2.40;99.90
55064;DHT22;40963;52.168;21.296;2023-02-11T03:21:41;2.40;99.90
55064;DHT22;40963;52.168;21.296;2023-02-11T03:24:13;2.40;99.90
55064;DHT22;40963;52.168;21.296;2023-02-11T03:26:43;2.40;99.90
55064;DHT22;40963;52.168;21.296;2023-02-11T03:29:46;2.40;99.90
55064;DHT22;40963;52.168;21.296;2023-02-11T03:32:24;2.40;99.90
55064;DHT22;40963;52.168;21.296;2023-02-11T03:34:56;2.40;99.90
55064;DHT22;40963;52.168;21.296;2023-02-11T03:40:03;2.40;99.90
55064;DHT22;40963;52.168;21.296;2023-02-11T03:42:33;2.40;99.90
55064;DHT22;40963;52.168;21.296;2023-02-11T03:45:12;2.40;99.90
55064;DHT22;40963;52.168;21.296;2023-02-11T03:47:42;2.40;99.90
55064;DHT22;40963;52.168;21.296;2023-02-11T03:50:12;2.40;99.90
55064;DHT22;40963;52.168;21.296;2023-02-11T03:52:39;2.40;99.90
55064;DHT22;40963;52.168;21.296;2023-02-11T03:55:14;2.40;99.90
55064;DHT22;40963;52.168;21.296;2023-02-11T03:57:41;2.40;99.90
55064;DHT22;40963;52.168;21.296;2023-02-11T04:00:08;2.40;99.90
55064;DHT22;40963;52.168;21.296;2023-02-11T04:02:35;2.40;99.90
55064;DHT22;40963;52.168;21.296;2023-02-11T04:05:02;2.50;99.90
55064;DHT22;40963;52.168;21.296;2023-02-11T04:07:28;2.40;99.90
55064;DHT22;40963;52.168;21.296;2023-02-11T04:09:54;2.40;99.90
55064;DHT22;40963;52.168;21.296;2023-02-11T04:12:20;2.50;99.90
55064;DHT22;40963;52.168;21.296;2023-02-11T04:14:45;2.40;99.90
55064;DHT22;40963;52.168;21.296;2023-02-11T04:17:11;2.40;99.90
55064;DHT22;40963;52.168;21.296;2023-02-11T04:19:37;2.40;99.90
55064;DHT22;40963;52.168;21.296;2023-02-11T04:22:03;2.40;99.90
55064;DHT22;40963;52.168;21.296;2023-02-11T04:24:29;2.40;99.90
55064;DHT22;40963;52.168;21.296;2023-02-11T04:26:55;2.40;99.90
55064;DHT22;40963;52.168;21.296;2023-02-11T04:29:21;2.50;99.90
55064;DHT22;40963;52.168;21.296;2023-02-11T04:31:47;2.40;99.90
55064;DHT22;40963;52.168;21.296;2023-02-11T04:34:13;2.50;99.90
55064;DHT22;40963;52.168;21.296;2023-02-11T04:36:39;2.50;99.90
55064;DHT22;40963;52.168;21.296;2023-02-11T04:39:05;2.40;99.90
55064;DHT22;40963;52.168;21.296;2023-02-11T04:41:30;2.50;99.90
55064;DHT22;40963;52.168;21.296;2023-02-11T04:43:56;2.40;99.90
55064;DHT22;40963;52.168;21.296;2023-02-11T04:46:22;2.50;99.90
55064;DHT22;40963;52.168;21.296;2023-02-11T04:48:47;2.40;99.90
55064;DHT22;40963;52.168;21.296;2023-02-11T04:51:13;2.50;99.90
55064;DHT22;40963;52.168;21.296;2023-02-11T04:53:39;2.40;99.90
55064;DHT22;40963;52.168;21.296;2023-02-11T04:56:04;2.40;99.90
55064;DHT22;40963;52.168;21.296;2023-02-11T04:58:30;2.40;99.90
55064;DHT22;40963;52.168;21.296;2023-02-11T05:01:07;2.40;99.90
55064;DHT22;40963;52.168;21.296;2023-02-11T05:03:34;2.40;99.90
55064;DHT22;40963;52.168;21.296;2023-02-11T05:06:00;2.40;99.90
55064;DHT22;40963;52.168;21.296;2023-02-11T05:08:25;2.40;99.90
55064;DHT22;40963;52.168;21.296;2023-02-11T05:10:51;2.40;99.90
55064;DHT22;40963;52.168;21.296;2023-02-11T05:13:17;2.40;99.90
55064;DHT22;40963;52.168;21.296;2023-02-11T05:15:42;2.40;99.90
55064;DHT22;40963;52.168;21.296;2023-02-11T05:18:11;2.40;99.90
55064;DHT22;40963;52.168;21.296;2023-02-11T05:20:37;2.40;99.90
55064;DHT22;40963;52.168;21.296;2023-02-11T05:23:03;2.30;99.90
55064;DHT22;40963;52.168;21.296;2023-02-11T05:25:29;2.30;99.90
55064;DHT22;40963;52.168;21.296;2023-02-11T05:27:54;2.40;99.90
55064;DHT22;40963;52.168;21.296;2023-02-11T05:30:20;2.30;99.90
55064;DHT22;40963;52.168;21.296;2023-02-11T05:32:46;2.30;99.90
55064;DHT22;40963;52.168;21.296;2023-02-11T05:35:12;2.40;99.90
55064;DHT22;40963;52.168;21.296;2023-02-11T05:37:38;2.30;99.90
55064;DHT22;40963;52.168;21.296;2023-02-11T05:40:04;2.30;99.90
55064;DHT22;40963;52.168;21.296;2023-02-11T05:42:30;2.30;99.90
55064;DHT22;40963;52.168;21.296;2023-02-11T05:44:56;2.40;99.90
55064;DHT22;40963;52.168;21.296;2023-02-11T05:47:21;2.30;99.90
55064;DHT22;40963;52.168;21.296;2023-02-11T05:49:47;2.30;99.90
55064;DHT22;40963;52.168;21.296;2023-02-11T05:52:12;2.40;99.90
55064;DHT22;40963;52.168;21.296;2023-02-11T05:54:38;2.40;99.90
55064;DHT22;40963;52.168;21.296;2023-02-11T05:57:04;2.40;99.90
55064;DHT22;40963;52.168;21.296;2023-02-11T05:59:30;2.40;99.90
55064;DHT22;40963;52.168;21.296;2023-02-11T06:01:55;2.40;99.90
55064;DHT22;40963;52.168;21.296;2023-02-11T06:04:22;2.40;99.90
55064;DHT22;40963;52.168;21.296;2023-02-11T06:06:48;2.30;99.90
55064;DHT22;40963;52.168;21.296;2023-02-11T06:09:14;2.40;99.90
55064;DHT22;40963;52.168;21.296;2023-02-11T06:11:39;2.40;99.90
55064;DHT22;40963;52.168;21.296;2023-02-11T06:14:05;2.30;99.90
55064;DHT22;40963;52.168;21.296;2023-02-11T06:16:31;2.30;99.90
55064;DHT22;40963;52.168;21.296;2023-02-11T06:18:56;2.40;99.90
55064;DHT22;40963;52.168;21.296;2023-02-11T06:21:22;2.40;99.90
55064;DHT22;40963;52.168;21.296;2023-02-11T06:23:48;2.40;99.90
55064;DHT22;40963;52.168;21.296;2023-02-11T06:26:22;2.40;99.90
55064;DHT22;40963;52.168;21.296;2023-02-11T06:28:48;2.40;99.90
55064;DHT22;40963;52.168;21.296;2023-02-11T06:31:14;2.40;99.90
55064;DHT22;40963;52.168;21.296;2023-02-11T06:33:40;2.40;99.90
55064;DHT22;40963;52.168;21.296;2023-02-11T06:36:19;2.50;99.90
55064;DHT22;40963;52.168;21.296;2023-02-11T06:38:45;2.50;99.90
55064;DHT22;40963;52.168;21.296;2023-02-11T06:41:13;2.50;99.90
55064;DHT22;40963;52.168;21.296;2023-02-11T06:43:39;2.50;99.90
55064;DHT22;40963;52.168;21.296;2023-02-11T06:46:06;2.50;99.90
55064;DHT22;40963;52.168;21.296;2023-02-11T06:48:32;2.50;99.90
55064;DHT22;40963;52.168;21.296;2023-02-11T06:51:03;2.50;99.90
55064;DHT22;40963;52.168;21.296;2023-02-11T06:53:30;2.60;99.90
55064;DHT22;40963;52.168;21.296;2023-02-11T06:56:00;2.60;99.90
55064;DHT22;40963;52.168;21.296;2023-02-11T06:58:26;2.60;99.90
55064;DHT22;40963;52.168;21.296;2023-02-11T07:00:51;2.60;99.90
55064;DHT22;40963;52.168;21.296;2023-02-11T07:03:17;2.60;99.90
55064;DHT22;40963;52.168;21.296;2023-02-11T07:05:42;2.70;99.90
55064;DHT22;40963;52.168;21.296;2023-02-11T07:08:08;2.70;99.90
55064;DHT22;40963;52.168;21.296;2023-02-11T07:10:34;2.70;99.90
55064;DHT22;40963;52.168;21.296;2023-02-11T07:13:00;2.70;99.90
55064;DHT22;40963;52.168;21.296;2023-02-11T07:15:26;2.80;99.90
55064;DHT22;40963;52.168;21.296;2023-02-11T07:17:52;2.80;99.90
55064;DHT22;40963;52.168;21.296;2023-02-11T07:20:18;2.80;99.90
55064;DHT22;40963;52.168;21.296;2023-02-11T07:22:44;2.80;99.90
55064;DHT22;40963;52.168;21.296;2023-02-11T07:25:10;2.90;99.90
55064;DHT22;40963;52.168;21.296;2023-02-11T07:27:35;2.90;99.90
55064;DHT22;40963;52.168;21.296;2023-02-11T07:30:01;2.80;99.90
55064;DHT22;40963;52.168;21.296;2023-02-11T07:32:27;2.90;99.90
55064;DHT22;40963;52.168;21.296;2023-02-11T07:34:52;2.90;99.90
55064;DHT22;40963;52.168;21.296;2023-02-11T07:37:18;2.80;99.90
55064;DHT22;40963;52.168;21.296;2023-02-11T07:39:44;2.90;99.90
55064;DHT22;40963;52.168;21.296;2023-02-11T07:42:09;2.90;99.90
55064;DHT22;40963;52.168;21.296;2023-02-11T07:44:35;2.90;99.90
55064;DHT22;40963;52.168;21.296;2023-02-11T07:47:01;2.80;99.90
55064;DHT22;40963;52.168;21.296;2023-02-11T07:49:27;2.80;99.90
55064;DHT22;40963;52.168;21.296;2023-02-11T07:51:53;2.80;99.90
55064;DHT22;40963;52.168;21.296;2023-02-11T07:54:19;2.80;99.90
55064;DHT22;40963;52.168;21.296;2023-02-11T07:56:44;2.80;99.90
55064;DHT22;40963;52.168;21.296;2023-02-11T07:59:10;2.70;99.90
55064;DHT22;40963;52.168;21.296;2023-02-11T08:01:36;2.70;99.90
55064;DHT22;40963;52.168;21.296;2023-02-11T08:04:02;2.70;99.90
55064;DHT22;40963;52.168;21.296;2023-02-11T08:06:30;2.60;99.90
55064;DHT22;40963;52.168;21.296;2023-02-11T08:08:56;2.60;99.90
55064;DHT22;40963;52.168;21.296;2023-02-11T08:11:26;2.60;99.90
55064;DHT22;40963;52.168;21.296;2023-02-11T08:13:54;2.60;99.90
55064;DHT22;40963;52.168;21.296;2023-02-11T08:16:25;2.60;99.90
55064;DHT22;40963;52.168;21.296;2023-02-11T08:18:52;2.60;99.90
55064;DHT22;40963;52.168;21.296;2023-02-11T08:21:19;2.50;99.90
55064;DHT22;40963;52.168;21.296;2023-02-11T08:23:45;2.50;99.90
55064;DHT22;40963;52.168;21.296;2023-02-11T08:26:14;2.50;99.90
55064;DHT22;40963;52.168;21.296;2023-02-11T08:28:41;2.50;99.90
55064;DHT22;40963;52.168;21.296;2023-02-11T08:31:15;2.40;99.90
55064;DHT22;40963;52.168;21.296;2023-02-11T08:33:41;2.40;99.90
55064;DHT22;40963;52.168;21.296;2023-02-11T08:36:15;2.40;99.90
55064;DHT22;40963;52.168;21.296;2023-02-11T08:38:41;2.40;99.90
55064;DHT22;40963;52.168;21.296;2023-02-11T08:41:08;2.40;99.90
55064;DHT22;40963;52.168;21.296;2023-02-11T08:43:35;2.40;99.90
55064;DHT22;40963;52.168;21.296;2023-02-11T08:46:01;2.40;99.90
55064;DHT22;40963;52.168;21.296;2023-02-11T08:48:27;2.40;99.90
55064;DHT22;40963;52.168;21.296;2023-02-11T08:50:56;2.30;99.90
55064;DHT22;40963;52.168;21.296;2023-02-11T08:53:22;2.30;99.90
55064;DHT22;40963;52.168;21.296;2023-02-11T08:55:52;2.30;99.90
55064;DHT22;40963;52.168;21.296;2023-02-11T08:58:18;2.20;99.90
55064;DHT22;40963;52.168;21.296;2023-02-11T09:00:44;2.20;99.90
55064;DHT22;40963;52.168;21.296;2023-02-11T09:03:14;2.20;99.90
55064;DHT22;40963;52.168;21.296;2023-02-11T09:05:47;2.20;99.90
55064;DHT22;40963;52.168;21.296;2023-02-11T09:08:15;2.10;99.90
55064;DHT22;40963;52.168;21.296;2023-02-11T09:10:41;2.10;99.90
55064;DHT22;40963;52.168;21.296;2023-02-11T09:13:07;2.10;99.90
55064;DHT22;40963;52.168;21.296;2023-02-11T09:15:34;2.10;99.90
55064;DHT22;40963;52.168;21.296;2023-02-11T09:18:00;2.10;99.90
55064;DHT22;40963;52.168;21.296;2023-02-11T09:20:26;2.10;99.90
55064;DHT22;40963;52.168;21.296;2023-02-11T09:22:55;2.10;99.90
55064;DHT22;40963;52.168;21.296;2023-02-11T09:25:21;2.10;99.90
55064;DHT22;40963;52.168;21.296;2023-02-11T09:27:46;2.10;99.90
55064;DHT22;40963;52.168;21.296;2023-02-11T09:30:12;2.10;99.90
55064;DHT22;40963;52.168;21.296;2023-02-11T09:32:38;2.10;99.90
55064;DHT22;40963;52.168;21.296;2023-02-11T09:35:04;2.10;99.90
55064;DHT22;40963;52.168;21.296;2023-02-11T09:37:29;2.10;99.90
55064;DHT22;40963;52.168;21.296;2023-02-11T09:39:55;2.20;99.90
55064;DHT22;40963;52.168;21.296;2023-02-11T09:45:25;2.20;99.90
55064;DHT22;40963;52.168;21.296;2023-02-11T09:48:17;2.20;99.90
55064;DHT22;40963;52.168;21.296;2023-02-11T09:53:23;2.20;99.90
55064;DHT22;40963;52.168;21.296;2023-02-11T09:55:52;2.20;99.90
55064;DHT22;40963;52.168;21.296;2023-02-11T09:58:28;2.30;99.90
55064;DHT22;40963;52.168;21.296;2023-02-11T10:04:16;2.30;99.90
55064;DHT22;40963;52.168;21.296;2023-02-11T10:06:48;2.30;99.90
55064;DHT22;40963;52.168;21.296;2023-02-11T10:12:59;2.30;99.90
55064;DHT22;40963;52.168;21.296;2023-02-11T10:18:44;2.40;99.90
55064;DHT22;40963;52.168;21.296;2023-02-11T10:24:10;2.50;99.90
55064;DHT22;40963;52.168;21.296;2023-02-11T10:26:38;2.40;99.90
55064;DHT22;40963;52.168;21.296;2023-02-11T10:29:20;2.40;99.90
55064;DHT22;40963;52.168;21.296;2023-02-11T10:31:48;2.50;99.90
55064;DHT22;40963;52.168;21.296;2023-02-11T10:34:15;2.50;99.90
55064;DHT22;40963;52.168;21.296;2023-02-11T10:36:42;2.50;99.90
55064;DHT22;40963;52.168;21.296;2023-02-11T10:39:17;2.50;99.90
55064;DHT22;40963;52.168;21.296;2023-02-11T10:41:46;2.50;99.90
55064;DHT22;40963;52.168;21.296;2023-02-11T10:44:31;2.50;99.90
55064;DHT22;40963;52.168;21.296;2023-02-11T10:47:01;2.50;99.90
55064;DHT22;40963;52.168;21.296;2023-02-11T10:52:27;2.60;99.90
55064;DHT22;40963;52.168;21.296;2023-02-11T10:55:20;2.50;99.90
55064;DHT22;40963;52.168;21.296;2023-02-11T10:57:55;2.60;99.90
55064;DHT22;40963;52.168;21.296;2023-02-11T11:00:32;2.50;99.90
55064;DHT22;40963;52.168;21.296;2023-02-11T11:03:00;2.50;99.90
55064;DHT22;40963;52.168;21.296;2023-02-11T11:05:54;2.50;99.90
55064;DHT22;40963;52.168;21.296;2023-02-11T11:08:21;2.60;99.90
55064;DHT22;40963;52.168;21.296;2023-02-11T11:11:08;2.60;99.90
55064;DHT22;40963;52.168;21.296;2023-02-11T11:13:40;2.60;99.90
55064;DHT22;40963;52.168;21.296;2023-02-11T11:18:39;2.60;99.90
55064;DHT22;40963;52.168;21.296;2023-02-11T11:21:17;2.60;99.90
55064;DHT22;40963;52.168;21.296;2023-02-11T11:23:56;2.60;99.90
55064;DHT22;40963;52.168;21.296;2023-02-11T11:26:27;2.60;99.90
55064;DHT22;40963;52.168;21.296;2023-02-11T11:28:59;2.60;99.90
55064;DHT22;40963;52.168;21.296;2023-02-11T11:31:30;2.60;99.90
55064;DHT22;40963;52.168;21.296;2023-02-11T11:34:00;2.70;99.90
55064;DHT22;40963;52.168;21.296;2023-02-11T11:36:33;2.60;99.90
55064;DHT22;40963;52.168;21.296;2023-02-11T11:39:09;2.60;99.90
55064;DHT22;40963;52.168;21.296;2023-02-11T11:41:51;2.70;99.90
55064;DHT22;40963;52.168;21.296;2023-02-11T11:44:26;2.70;99.90
55064;DHT22;40963;52.168;21.296;2023-02-11T11:54:57;2.80;99.90
55064;DHT22;40963;52.168;21.296;2023-02-11T11:57:26;2.80;99.90
55064;DHT22;40963;52.168;21.296;2023-02-11T11:59:57;2.80;99.90
55064;DHT22;40963;52.168;21.296;2023-02-11T12:02:44;2.80;99.90
55064;DHT22;40963;52.168;21.296;2023-02-11T12:05:27;2.90;99.90
55064;DHT22;40963;52.168;21.296;2023-02-11T12:08:07;2.90;99.90
55064;DHT22;40963;52.168;21.296;2023-02-11T12:10:47;2.90;99.90
55064;DHT22;40963;52.168;21.296;2023-02-11T12:37:31;3.10;99.90
55064;DHT22;40963;52.168;21.296;2023-02-11T12:40:21;3.20;99.90
55064;DHT22;40963;52.168;21.296;2023-02-11T12:57:00;3.40;99.90
55064;DHT22;40963;52.168;21.296;2023-02-11T12:59:51;3.40;99.90
55064;DHT22;40963;52.168;21.296;2023-02-11T13:03:04;3.40;99.90
55064;DHT22;40963;52.168;21.296;2023-02-11T13:05:48;3.50;99.90
55064;DHT22;40963;52.168;21.296;2023-02-11T13:08:26;3.50;99.90
55064;DHT22;40963;52.168;21.296;2023-02-11T13:10:59;3.50;99.90
55064;DHT22;40963;52.168;21.296;2023-02-11T13:13:38;3.60;99.90
55064;DHT22;40963;52.168;21.296;2023-02-11T13:16:33;3.60;99.90
55064;DHT22;40963;52.168;21.296;2023-02-11T13:21:58;3.70;99.90
55064;DHT22;40963;52.168;21.296;2023-02-11T13:25:18;3.80;99.90
55064;DHT22;40963;52.168;21.296;2023-02-11T13:27:59;3.80;99.90
55064;DHT22;40963;52.168;21.296;2023-02-11T13:30:33;3.80;99.90
55064;DHT22;40963;52.168;21.296;2023-02-11T13:33:03;3.90;99.90
55064;DHT22;40963;52.168;21.296;2023-02-11T13:35:31;3.90;99.90
55064;DHT22;40963;52.168;21.296;2023-02-11T13:38:03;3.90;99.90
55064;DHT22;40963;52.168;21.296;2023-02-11T13:40:38;3.90;99.90
55064;DHT22;40963;52.168;21.296;2023-02-11T13:43:10;3.90;99.90
55064;DHT22;40963;52.168;21.296;2023-02-11T13:45:48;3.90;99.90
55064;DHT22;40963;52.168;21.296;2023-02-11T13:48:16;3.90;99.90
55064;DHT22;40963;52.168;21.296;2023-02-11T13:50:53;4.00;99.90
55064;DHT22;40963;52.168;21.296;2023-02-11T13:53:20;4.00;99.90
55064;DHT22;40963;52.168;21.296;2023-02-11T13:55:48;4.00;99.90
55064;DHT22;40963;52.168;21.296;2023-02-11T14:00:53;4.00;99.90
55064;DHT22;40963;52.168;21.296;2023-02-11T14:19:37;4.00;99.90
55064;DHT22;40963;52.168;21.296;2023-02-11T14:22:15;4.00;99.90
55064;DHT22;40963;52.168;21.296;2023-02-11T14:25:00;4.00;99.90
55064;DHT22;40963;52.168;21.296;2023-02-11T14:30:38;4.00;99.90
55064;DHT22;40963;52.168;21.296;2023-02-11T14:39:25;4.00;99.90
55064;DHT22;40963;52.168;21.296;2023-02-11T14:41:25;4.00;99.90
55064;DHT22;40963;52.168;21.296;2023-02-11T14:43:59;4.10;99.90
55064;DHT22;40963;52.168;21.296;2023-02-11T14:46:27;4.10;99.90
55064;DHT22;40963;52.168;21.296;2023-02-11T14:48:57;4.10;99.90
55064;DHT22;40963;52.168;21.296;2023-02-11T14:51:29;4.10;99.90
55064;DHT22;40963;52.168;21.296;2023-02-11T14:53:59;4.10;99.90
55064;DHT22;40963;52.168;21.296;2023-02-11T14:56:28;4.10;99.90
55064;DHT22;40963;52.168;21.296;2023-02-11T14:58:56;4.10;99.90
55064;DHT22;40963;52.168;21.296;2023-02-11T15:01:39;4.10;99.90
55064;DHT22;40963;52.168;21.296;2023-02-11T15:04:26;4.10;99.90
55064;DHT22;40963;52.168;21.296;2023-02-11T15:06:53;4.20;99.90
55064;DHT22;40963;52.168;21.296;2023-02-11T15:12:23;4.20;99.90
55064;DHT22;40963;52.168;21.296;2023-02-11T15:14:55;4.20;99.90
55064;DHT22;40963;52.168;21.296;2023-02-11T15:17:25;4.20;99.90
55064;DHT22;40963;52.168;21.296;2023-02-11T15:19:58;4.20;99.90
55064;DHT22;40963;52.168;21.296;2023-02-11T15:22:29;4.30;99.90
55064;DHT22;40963;52.168;21.296;2023-02-11T15:25:11;4.20;99.90
55064;DHT22;40963;52.168;21.296;2023-02-11T15:27:41;4.20;99.90
55064;DHT22;40963;52.168;21.296;2023-02-11T15:30:28;4.30;99.90
55064;DHT22;40963;52.168;21.296;2023-02-11T15:33:00;4.30;99.90
55064;DHT22;40963;52.168;21.296;2023-02-11T15:35:36;4.30;99.90
55064;DHT22;40963;52.168;21.296;2023-02-11T15:38:03;4.30;99.90
55064;DHT22;40963;52.168;21.296;2023-02-11T15:40:32;4.30;99.90
55064;DHT22;40963;52.168;21.296;2023-02-11T15:43:09;4.30;99.90
55064;DHT22;40963;52.168;21.296;2023-02-11T15:45:38;4.30;99.90
55064;DHT22;40963;52.168;21.296;2023-02-11T15:48:15;4.30;99.90
55064;DHT22;40963;52.168;21.296;2023-02-11T15:50:50;4.30;99.90
55064;DHT22;40963;52.168;21.296;2023-02-11T15:55:41;4.30;99.90
55064;DHT22;40963;52.168;21.296;2023-02-11T15:58:08;4.30;99.90
55064;DHT22;40963;52.168;21.296;2023-02-11T16:00:49;4.30;99.90
55064;DHT22;40963;52.168;21.296;2023-02-11T16:03:27;4.30;99.90
55064;DHT22;40963;52.168;21.296;2023-02-11T16:08:41;4.30;99.90
55064;DHT22;40963;52.168;21.296;2023-02-11T16:11:29;4.30;99.90
55064;DHT22;40963;52.168;21.296;2023-02-11T16:13:57;4.30;99.90
55064;DHT22;40963;52.168;21.296;2023-02-11T16:16:33;4.30;99.90
55064;DHT22;40963;52.168;21.296;2023-02-11T16:19:00;4.40;99.90
55064;DHT22;40963;52.168;21.296;2023-02-11T16:21:32;4.40;99.90
55064;DHT22;40963;52.168;21.296;2023-02-11T16:24:03;4.40;99.90
55064;DHT22;40963;52.168;21.296;2023-02-11T16:29:10;4.40;99.90
55064;DHT22;40963;52.168;21.296;2023-02-11T16:31:43;4.40;99.90
55064;DHT22;40963;52.168;21.296;2023-02-11T16:34:21;4.40;99.90
55064;DHT22;40963;52.168;21.296;2023-02-11T16:36:48;4.40;99.90
55064;DHT22;40963;52.168;21.296;2023-02-11T16:39:15;4.50;99.90
55064;DHT22;40963;52.168;21.296;2023-02-11T16:41:41;4.40;99.90
55064;DHT22;40963;52.168;21.296;2023-02-11T16:44:07;4.50;99.90
55064;DHT22;40963;52.168;21.296;2023-02-11T16:46:33;4.40;99.90
55064;DHT22;40963;52.168;21.296;2023-02-11T16:49:13;4.50;99.90
55064;DHT22;40963;52.168;21.296;2023-02-11T16:51:40;4.50;99.90
55064;DHT22;40963;52.168;21.296;2023-02-11T16:54:09;4.50;99.90
55064;DHT22;40963;52.168;21.296;2023-02-11T16:56:36;4.50;99.90
55064;DHT22;40963;52.168;21.296;2023-02-11T16:59:02;4.50;99.90
55064;DHT22;40963;52.168;21.296;2023-02-11T17:01:28;4.50;99.90
55064;DHT22;40963;52.168;21.296;2023-02-11T17:03:53;4.50;99.90
55064;DHT22;40963;52.168;21.296;2023-02-11T17:06:19;4.50;99.90
55064;DHT22;40963;52.168;21.296;2023-02-11T17:08:45;4.50;99.90
55064;DHT22;40963;52.168;21.296;2023-02-11T17:11:10;4.50;99.90
55064;DHT22;40963;52.168;21.296;2023-02-11T17:13:41;4.50;99.90
55064;DHT22;40963;52.168;21.296;2023-02-11T17:16:19;4.50;99.90
55064;DHT22;40963;52.168;21.296;2023-02-11T17:18:46;4.50;99.90
55064;DHT22;40963;52.168;21.296;2023-02-11T17:21:12;4.50;99.90
55064;DHT22;40963;52.168;21.296;2023-02-11T17:23:38;4.60;99.90
55064;DHT22;40963;52.168;21.296;2023-02-11T17:26:04;4.50;99.90
55064;DHT22;40963;52.168;21.296;2023-02-11T17:28:30;4.60;99.90
55064;DHT22;40963;52.168;21.296;2023-02-11T17:30:57;4.50;99.90
55064;DHT22;40963;52.168;21.296;2023-02-11T17:33:23;4.50;99.90
55064;DHT22;40963;52.168;21.296;2023-02-11T17:35:49;4.60;99.90
55064;DHT22;40963;52.168;21.296;2023-02-11T17:38:15;4.60;99.90
55064;DHT22;40963;52.168;21.296;2023-02-11T17:40:40;4.60;99.90
55064;DHT22;40963;52.168;21.296;2023-02-11T17:43:06;4.60;99.90
55064;DHT22;40963;52.168;21.296;2023-02-11T17:45:32;4.60;99.90
55064;DHT22;40963;52.168;21.296;2023-02-11T17:47:57;4.60;99.90
55064;DHT22;40963;52.168;21.296;2023-02-11T17:50:23;4.60;99.90
55064;DHT22;40963;52.168;21.296;2023-02-11T17:52:49;4.60;99.90
55064;DHT22;40963;52.168;21.296;2023-02-11T17:55:14;4.60;99.90
55064;DHT22;40963;52.168;21.296;2023-02-11T17:57:40;4.60;99.90
55064;DHT22;40963;52.168;21.296;2023-02-11T18:00:07;4.60;99.90
55064;DHT22;40963;52.168;21.296;2023-02-11T18:02:33;4.60;99.90
55064;DHT22;40963;52.168;21.296;2023-02-11T18:04:59;4.60;99.90
55064;DHT22;40963;52.168;21.296;2023-02-11T18:07:25;4.60;99.90
55064;DHT22;40963;52.168;21.296;2023-02-11T18:09:51;4.60;99.90
55064;DHT22;40963;52.168;21.296;2023-02-11T18:12:17;4.70;99.90
55064;DHT22;40963;52.168;21.296;2023-02-11T18:14:51;4.60;99.90
55064;DHT22;40963;52.168;21.296;2023-02-11T18:17:19;4.70;99.90
55064;DHT22;40963;52.168;21.296;2023-02-11T18:19:45;4.60;99.90
55064;DHT22;40963;52.168;21.296;2023-02-11T18:22:10;4.60;99.90